87X YBHM-YTNG
Flight info
| Callsign | 87X |
|---|---|
| Flight time | N/A |
| Altitude | 19000 |
| Route | OVRON B462 MK V153 MUNAR/N0340F390 Y61 RUROX/N0363F190 W727 SUSGI W534 SU |
| Aircraft | E50P/L-SBDFGRWY/LB2 |
Departure
| Time | N/A |
|---|---|
| Airport | Hamilton Island Airport (YBHM) |
Arrival
| Time | 2026-04-18 04:48 |
|---|---|
| Airport | Thangool Airport (YTNG) |
| Time | Latitude | Longitude | Altitude | Speed | Heading |
|---|---|---|---|---|---|
| 2026-04-18 04:39 | -24.34904 | 150.56617 | 12710 ft | 165 kts | 200° |
| 2026-04-18 04:39 | -24.36098 | 150.56507 | 12351 ft | 176 kts | 181° |
| 2026-04-18 04:39 | -24.37255 | 150.56837 | 12260 ft | 169 kts | 165° |
| 2026-04-18 04:40 | -24.38354 | 150.57326 | 11928 ft | 173 kts | 165° |
| 2026-04-18 04:40 | -24.39608 | 150.57679 | 11055 ft | 201 kts | 175° |
| 2026-04-18 04:40 | -24.41039 | 150.57829 | 10422 ft | 212 kts | 181° |
| 2026-04-18 04:40 | -24.42482 | 150.57823 | 10008 ft | 205 kts | 184° |
| 2026-04-18 04:41 | -24.43996 | 150.57798 | 9032 ft | 227 kts | 182° |
| 2026-04-18 04:41 | -24.45521 | 150.57819 | 8505 ft | 220 kts | 182° |
| 2026-04-18 04:41 | -24.46924 | 150.57275 | 7825 ft | 219 kts | 222° |
| 2026-04-18 04:41 | -24.47464 | 150.55777 | 7345 ft | 215 kts | 271° |
| 2026-04-18 04:42 | -24.46938 | 150.54273 | 6867 ft | 211 kts | 299° |
| 2026-04-18 04:42 | -24.46209 | 150.52981 | 6785 ft | 188 kts | 301° |
| 2026-04-18 04:42 | -24.45500 | 150.51807 | 6497 ft | 183 kts | 302° |
| 2026-04-18 04:42 | -24.44805 | 150.50632 | 6142 ft | 183 kts | 302° |
| 2026-04-18 04:43 | -24.44616 | 150.49401 | 6048 ft | 159 kts | 240° |
| 2026-04-18 04:43 | -24.45565 | 150.48974 | 5614 ft | 161 kts | 166° |
| 2026-04-18 04:43 | -24.46391 | 150.49785 | 5126 ft | 168 kts | 126° |
| 2026-04-18 04:43 | -24.47059 | 150.51018 | 4008 ft | 206 kts | 116° |
| 2026-04-18 04:44 | -24.47138 | 150.52456 | 4077 ft | 177 kts | 70° |
| 2026-04-18 04:44 | -24.46287 | 150.53289 | 3990 ft | 161 kts | 13° |
| 2026-04-18 04:44 | -24.45331 | 150.52969 | 3944 ft | 144 kts | 307° |
| 2026-04-18 04:44 | -24.45282 | 150.51972 | 3710 ft | 141 kts | 234° |
| 2026-04-18 04:45 | -24.46127 | 150.51644 | 3550 ft | 134 kts | 163° |
| 2026-04-18 04:45 | -24.46872 | 150.52300 | 3077 ft | 153 kts | 136° |
| 2026-04-18 04:45 | -24.47614 | 150.53202 | 2613 ft | 165 kts | 130° |
| 2026-04-18 04:45 | -24.48199 | 150.54234 | 2492 ft | 152 kts | 117° |
| 2026-04-18 04:46 | -24.48504 | 150.55253 | 2529 ft | 131 kts | 86° |
| 2026-04-18 04:46 | -24.47940 | 150.55930 | 2249 ft | 137 kts | 1° |
| 2026-04-18 04:46 | -24.47333 | 150.55334 | 2070 ft | 130 kts | 275° |
| 2026-04-18 04:46 | -24.47830 | 150.54641 | 1909 ft | 122 kts | 191° |
| 2026-04-18 04:47 | -24.48488 | 150.55014 | 1697 ft | 124 kts | 116° |
| 2026-04-18 04:47 | -24.48852 | 150.56055 | 1059 ft | 160 kts | 116° |
| 2026-04-18 04:47 | -24.49156 | 150.57103 | 1249 ft | 128 kts | 88° |
| 2026-04-18 04:47 | -24.48580 | 150.57651 | 1199 ft | 118 kts | 346° |
| 2026-04-18 04:48 | -24.48330 | 150.57023 | 1030 ft | 100 kts | 222° |
| 2026-04-18 04:48 | -24.48967 | 150.56937 | 861 ft | 97 kts | 160° |
| 2026-04-18 04:48 | -24.49370 | 150.57556 | 626 ft | 106 kts | 114° |
| 2026-04-18 04:48 | -24.49546 | 150.58014 | 616 ft | 0 kts | 130° |